Terminal Aerodrome Forecast
Issued by NWS

Home | Current Version | Previous Version | Text Only | Print | Product List | Glossary Off
Versions: 1 2 3 4 5 6 7 8 9 10 11 12 13 14 15 16 17 18

000
FTUS43 KMPX 241735
TAFAXN
TAF
KAXN 241735Z 2418/2518 21006KT P6SM SCT050 SCT150
     FM250200 11005KT P6SM BKN250
     FM251400 12011G17KT 5SM -SHRA BR OVC050=

USA.gov is the U.S. government's official web portal to all federal, state and local government web resources and services.